Time;durP1;ratioP1;P1;durP2;ratioP2;P2;SDS_P1;SDS_P2;PMS_P1;PMS_P2;Temp;Humidity;BMP_temperature;BMP_pressure;BME280_temperature;BME280_humidity;BME280_pressure;Samples;Min_cycle;Max_cycle;Signal;HPM_P1;HPM_P2
2022/10/27 00:03:35;;;;;;;3.15;1.60;;;;;;;14.79;100.00;101247.72;8286936;28;20056;-50
2022/10/27 00:07:37;;;;;;;6.32;2.20;;;;;;;14.43;100.00;101255.91;8271600;28;20485;-49
2022/10/27 00:11:37;;;;;;;5.28;2.03;;;;;;;14.32;100.00;101251.47;8271858;28;20044;-49
2022/10/27 00:15:38;;;;;;;7.35;2.28;;;;;;;14.29;100.00;101243.63;8288109;28;20037;-49
2022/10/27 00:19:39;;;;;;;7.90;2.60;;;;;;;14.28;100.00;101241.91;8288275;28;20070;-49
2022/10/27 00:23:40;;;;;;;7.68;2.30;;;;;;;14.35;100.00;101237.59;8288653;28;20567;-49
2022/10/27 00:27:41;;;;;;;4.43;2.15;;;;;;;14.28;100.00;101247.34;8288357;28;20556;-50
2022/10/27 00:31:41;;;;;;;8.65;2.50;;;;;;;14.28;100.00;101244.63;8287827;28;20411;-49
2022/10/27 00:35:42;;;;;;;9.60;2.45;;;;;;;14.37;100.00;101240.16;8288664;28;20053;-49
2022/10/27 00:39:42;;;;;;;6.40;2.17;;;;;;;14.50;100.00;101241.56;8285134;28;20060;-50
2022/10/27 00:43:43;;;;;;;11.68;2.10;;;;;;;14.53;100.00;101238.53;8291337;28;20046;-49
2022/10/27 00:47:44;;;;;;;8.13;2.28;;;;;;;14.52;100.00;101253.13;8291417;28;20052;-49
2022/10/27 00:51:49;;;;;;;6.43;2.38;;;;;;;14.48;100.00;101242.69;8291133;28;20459;-49
2022/10/27 00:55:49;;;;;;;6.18;2.58;;;;;;;14.40;100.00;101256.19;8292033;28;20120;-49
2022/10/27 00:59:50;;;;;;;8.18;2.17;;;;;;;14.28;100.00;101254.66;8290090;28;20030;-50
2022/10/27 01:03:51;;;;;;;6.80;2.13;;;;;;;14.32;100.00;101251.47;8290381;28;20041;-49
2022/10/27 01:07:56;;;;;;;6.18;2.53;;;;;;;14.47;100.00;101263.63;8291119;28;20052;-50
2022/10/27 01:11:57;;;;;;;8.85;2.10;;;;;;;14.49;100.00;101256.16;8290011;28;20038;-49
2022/10/27 01:20:52;;;;;;;4.05;2.40;;;;;;;14.26;100.00;101254.78;8355940;27;20483;-49
2022/10/27 01:33:51;;;;;;;9.27;2.47;;;;;;;14.31;100.00;101257.94;8404524;27;20123;-49
2022/10/27 01:38:04;;;;;;;7.35;3.05;;;;;;;14.24;100.00;101256.78;8402392;27;20991;-50
2022/10/27 01:42:08;;;;;;;6.93;2.70;;;;;;;14.12;100.00;101268.78;8402506;28;20119;-51
2022/10/27 01:46:10;;;;;;;6.22;2.88;;;;;;;14.08;100.00;101272.81;8403163;27;20115;-49
2022/10/27 01:50:16;;;;;;;6.15;2.70;;;;;;;13.92;100.00;101261.66;8399230;27;20032;-48
2022/10/27 01:54:19;;;;;;;6.25;3.30;;;;;;;13.88;100.00;101264.81;8400480;27;20032;-49
2022/10/27 01:58:49;;;;;;;9.13;3.13;;;;;;;13.88;100.00;101266.53;8402797;27;20032;-49
2022/10/27 02:02:58;;;;;;;6.70;3.15;;;;;;;13.90;100.00;101258.22;8402374;27;20408;-49
2022/10/27 02:07:27;;;;;;;4.47;3.00;;;;;;;13.90;100.00;101263.66;8402230;27;20040;-49
2022/10/27 02:11:33;;;;;;;7.72;3.22;;;;;;;13.85;100.00;101265.97;8401843;27;20052;-48
2022/10/27 02:15:39;;;;;;;9.15;3.10;;;;;;;13.73;100.00;101262.50;8400882;27;20060;-49
2022/10/27 02:19:43;;;;;;;8.90;3.70;;;;;;;13.69;100.00;101260.22;8400131;27;20071;-50
2022/10/27 02:23:44;;;;;;;7.95;3.30;;;;;;;13.69;100.00;101262.94;8401663;27;20044;-49
2022/10/27 02:27:49;;;;;;;10.35;3.05;;;;;;;13.71;100.00;101255.50;8401619;27;20042;-49
2022/10/27 02:31:53;;;;;;;7.47;2.92;;;;;;;13.76;100.00;101258.69;8400594;27;20051;-50
2022/10/27 02:35:55;;;;;;;5.83;2.87;;;;;;;13.70;100.00;101256.53;8408867;28;20060;-50
2022/10/27 02:39:56;;;;;;;15.70;3.33;;;;;;;13.79;100.00;101255.66;8415245;28;20032;-49
2022/10/27 02:43:57;;;;;;;10.35;2.95;;;;;;;13.83;100.00;101257.97;8400130;28;20441;-49
2022/10/27 02:47:57;;;;;;;10.02;3.30;;;;;;;13.80;100.00;101257.38;8360684;28;20549;-49
2022/10/27 02:51:58;;;;;;;6.40;2.58;;;;;;;13.73;100.00;101250.81;8343355;28;20033;-48
2022/10/27 02:55:59;;;;;;;20.27;3.55;;;;;;;13.64;100.00;101262.53;8345534;28;20513;-49
2022/10/27 03:00:00;;;;;;;8.80;2.92;;;;;;;13.63;100.00;101260.78;8370285;28;20418;-50
2022/10/27 03:04:00;;;;;;;6.07;2.75;;;;;;;13.60;100.00;101250.19;8378115;28;20063;-49
2022/10/27 03:08:02;;;;;;;9.82;3.38;;;;;;;13.47;100.00;101249.63;8377922;28;20041;-49
2022/10/27 03:12:03;;;;;;;9.48;3.63;;;;;;;13.40;100.00;101248.50;8375983;28;20037;-49
2022/10/27 03:16:03;;;;;;;10.60;2.83;;;;;;;13.47;100.00;101252.34;8377961;28;20068;-48
2022/10/27 03:20:05;;;;;;;11.68;3.50;;;;;;;13.47;100.00;101244.19;8376315;28;20568;-49
2022/10/27 03:24:06;;;;;;;7.32;3.22;;;;;;;13.46;100.00;101245.22;8377316;28;20044;-49
2022/10/27 03:28:06;;;;;;;7.75;3.20;;;;;;;13.43;100.00;101231.91;8377721;28;20057;-49
2022/10/27 03:32:07;;;;;;;9.85;3.33;;;;;;;13.42;100.00;101236.47;8377181;28;20028;-48
2022/10/27 03:36:08;;;;;;;6.40;3.25;;;;;;;13.28;100.00;101217.03;8377138;28;20087;-49
2022/10/27 03:40:09;;;;;;;7.97;3.78;;;;;;;13.23;100.00;101227.44;8375012;28;20550;-50
2022/10/27 03:44:10;;;;;;;14.30;3.92;;;;;;;13.24;100.00;101237.31;8377098;28;20186;-52
2022/10/27 03:48:11;;;;;;;9.60;3.45;;;;;;;13.15;100.00;101238.16;8377083;28;20045;-51
2022/10/27 03:52:12;;;;;;;7.88;3.83;;;;;;;13.09;100.00;101233.28;8376114;28;20086;-49
2022/10/27 03:56:13;;;;;;;13.00;3.95;;;;;;;13.01;100.00;101236.69;8375655;28;20515;-50
2022/10/27 04:00:14;;;;;;;9.02;4.15;;;;;;;12.93;100.00;101235.63;8376075;28;20043;-49
2022/10/27 04:04:15;;;;;;;8.75;4.07;;;;;;;12.90;100.00;101233.19;8390631;28;20514;-49
2022/10/27 04:08:16;;;;;;;10.98;4.78;;;;;;;12.90;100.00;101239.47;8357221;28;20485;-51
2022/10/27 04:12:17;;;;;;;10.68;4.53;;;;;;;12.90;100.00;101238.63;8370934;28;20037;-49
2022/10/27 04:16:17;;;;;;;9.93;4.57;;;;;;;12.95;100.00;101241.75;8358879;28;20064;-48
2022/10/27 04:20:18;;;;;;;11.75;4.50;;;;;;;12.97;100.00;101239.78;8351867;28;20053;-49
2022/10/27 04:24:18;;;;;;;8.30;4.28;;;;;;;12.88;100.00;101246.91;8348002;28;20179;-50
2022/10/27 04:28:19;;;;;;;10.10;4.18;;;;;;;12.82;100.00;101238.44;8344145;28;20127;-49
2022/10/27 04:32:20;;;;;;;8.70;4.20;;;;;;;12.81;100.00;101234.03;8349344;28;20451;-49
2022/10/27 04:36:21;;;;;;;5.88;4.30;;;;;;;12.75;100.00;101234.56;8364648;28;20038;-49
2022/10/27 04:40:22;;;;;;;14.35;4.68;;;;;;;12.72;100.00;101240.25;8399172;28;20051;-49
2022/10/27 04:44:22;;;;;;;11.30;4.53;;;;;;;12.65;100.00;101220.94;8421434;28;21156;-49
2022/10/27 04:48:23;;;;;;;11.20;4.50;;;;;;;12.61;100.00;101232.22;8352062;28;20037;-50
2022/10/27 04:52:24;;;;;;;10.20;4.10;;;;;;;12.56;100.00;101239.91;8350224;28;20146;-49
2022/10/27 04:56:24;;;;;;;7.50;4.07;;;;;;;12.56;100.00;101235.31;8346260;28;20449;-50
2022/10/27 05:00:25;;;;;;;9.38;4.75;;;;;;;12.51;100.00;101231.31;8364239;28;20044;-48
2022/10/27 05:04:26;;;;;;;12.65;4.88;;;;;;;12.51;100.00;101231.31;8392652;28;20040;-50
2022/10/27 05:08:27;;;;;;;9.07;4.63;;;;;;;12.54;100.00;101237.34;8354353;28;20044;-49
2022/10/27 05:12:27;;;;;;;13.27;5.28;;;;;;;12.50;100.00;101240.47;8353095;28;20044;-49
2022/10/27 05:16:28;;;;;;;10.70;5.32;;;;;;;12.39;100.00;101237.81;8349178;28;20076;-49
2022/10/27 05:20:28;;;;;;;8.32;4.85;;;;;;;12.34;100.00;101242.78;8325360;28;20441;-49
2022/10/27 05:24:29;;;;;;;11.50;4.55;;;;;;;12.32;100.00;101242.06;8365609;28;20525;-50
2022/10/27 05:28:30;;;;;;;11.82;4.20;;;;;;;12.31;100.00;101245.75;8363203;28;20424;-49
2022/10/27 05:32:31;;;;;;;9.23;4.85;;;;;;;12.27;100.00;101241.59;8358002;28;20055;-48
2022/10/27 05:36:31;;;;;;;9.82;4.88;;;;;;;12.36;100.00;101238.97;8368582;28;20045;-49
2022/10/27 05:40:33;;;;;;;8.82;5.78;;;;;;;12.28;100.00;101235.19;8361192;28;20067;-50
2022/10/27 05:44:33;;;;;;;12.05;4.60;;;;;;;12.27;100.00;101233.47;8322727;28;20035;-50
2022/10/27 05:48:34;;;;;;;9.35;4.55;;;;;;;12.33;100.00;101239.22;8347097;28;20041;-50
2022/10/27 05:52:35;;;;;;;10.25;4.97;;;;;;;12.27;100.00;101233.47;8366773;28;20582;-50
2022/10/27 05:56:35;;;;;;;8.10;4.32;;;;;;;12.23;100.00;101235.56;8363011;28;20410;-49
2022/10/27 06:00:38;;;;;;;7.72;4.95;;;;;;;12.24;100.00;101247.28;8333570;28;20087;-49
2022/10/27 06:04:39;;;;;;;9.32;4.68;;;;;;;12.25;100.00;101240.88;8378392;28;20525;-49
2022/10/27 06:08:40;;;;;;;10.48;5.07;;;;;;;12.30;100.00;101244.91;8362575;28;20041;-49
2022/10/27 06:12:41;;;;;;;9.60;5.40;;;;;;;12.29;100.00;101250.47;8370487;28;20051;-49
2022/10/27 06:16:41;;;;;;;12.15;5.57;;;;;;;12.26;100.00;101243.44;8357931;28;20091;-50
2022/10/27 06:20:42;;;;;;;13.45;5.30;;;;;;;12.27;100.00;101252.44;8397165;28;20040;-49
2022/10/27 06:24:43;;;;;;;13.68;5.55;;;;;;;12.27;100.00;101249.72;8352889;28;20056;-50
2022/10/27 06:28:43;;;;;;;16.55;5.30;;;;;;;12.27;100.00;101249.72;8356853;28;20607;-49
2022/10/27 06:32:44;;;;;;;18.92;5.15;;;;;;;12.26;100.00;101264.28;8378834;28;20064;-50
2022/10/27 06:36:45;;;;;;;13.45;6.07;;;;;;;12.23;100.00;101259.13;8379946;28;20045;-49
2022/10/27 06:40:46;;;;;;;14.98;6.05;;;;;;;12.21;100.00;101261.09;8377680;28;20122;-50
2022/10/27 06:44:46;;;;;;;13.88;5.43;;;;;;;12.28;100.00;101259.56;8379395;28;20246;-49
2022/10/27 06:48:47;;;;;;;6.88;4.75;;;;;;;12.32;100.00;101263.75;8378957;28;20063;-50
2022/10/27 06:52:50;;;;;;;11.27;5.20;;;;;;;12.37;100.00;101267.78;8377701;28;20116;-49
2022/10/27 06:56:50;;;;;;;9.98;4.93;;;;;;;12.44;100.00;101259.97;8379525;28;20041;-49
2022/10/27 07:00:51;;;;;;;8.55;4.75;;;;;;;12.42;100.00;101260.13;8379013;28;20143;-49
2022/10/27 07:04:51;;;;;;;8.95;5.03;;;;;;;12.51;100.00;101250.31;8378411;28;20064;-49
2022/10/27 07:08:52;;;;;;;14.70;6.50;;;;;;;12.70;100.00;101247.66;8378818;28;20041;-50
2022/10/27 07:12:55;;;;;;;14.10;7.05;;;;;;;12.90;100.00;101244.88;8378748;28;20493;-49
2022/10/27 07:16:57;;;;;;;17.05;6.38;;;;;;;13.16;100.00;101245.28;8371771;28;20402;-49
2022/10/27 07:21:00;;;;;;;14.45;7.07;;;;;;;13.45;100.00;101247.06;8361730;28;20506;-49
2022/10/27 07:25:00;;;;;;;15.95;6.22;;;;;;;13.82;100.00;101233.66;8362124;28;20033;-49
2022/10/27 07:29:01;;;;;;;12.23;5.32;;;;;;;14.13;100.00;101237.91;8369528;28;20029;-49
2022/10/27 07:33:02;;;;;;;10.90;5.15;;;;;;;14.25;100.00;101239.47;8378184;28;20036;-49
2022/10/27 07:37:03;;;;;;;15.20;6.53;;;;;;;14.40;100.00;101240.75;8379287;28;20045;-53
2022/10/27 07:41:04;;;;;;;11.18;5.30;;;;;;;14.56;100.00;101238.25;8378721;28;20043;-53
2022/10/27 07:45:05;;;;;;;9.70;3.10;;;;;;;14.73;100.00;101242.88;8377824;28;20028;-52
2022/10/27 07:49:05;;;;;;;11.57;5.05;;;;;;;14.83;100.00;101238.28;8360549;28;20098;-53
2022/10/27 07:53:06;;;;;;;8.23;4.35;;;;;;;14.92;100.00;101248.28;8360998;28;20037;-52
2022/10/27 07:57:07;;;;;;;11.18;4.57;;;;;;;15.09;100.00;101239.28;8361513;28;20052;-53
2022/10/27 08:01:07;;;;;;;10.20;4.10;;;;;;;15.20;100.00;101252.69;8376866;28;20040;-53
2022/10/27 08:05:09;;;;;;;7.63;4.38;;;;;;;15.33;100.00;101242.28;8376614;28;20029;-51
2022/10/27 08:09:10;;;;;;;9.75;4.72;;;;;;;15.62;100.00;101242.13;8376670;28;20048;-52
2022/10/27 08:13:11;;;;;;;10.25;3.40;;;;;;;15.85;100.00;101237.91;8377119;28;20083;-51
2022/10/27 08:17:13;;;;;;;9.32;3.38;;;;;;;15.97;100.00;101246.69;8375859;28;20110;-50
2022/10/27 08:21:13;;;;;;;6.88;3.22;;;;;;;16.14;100.00;101232.19;8359470;28;20112;-52
2022/10/27 08:25:14;;;;;;;4.63;2.90;;;;;;;16.33;100.00;101237.44;8360047;28;20037;-52
2022/10/27 08:29:15;;;;;;;4.53;2.55;;;;;;;16.52;100.00;101245.44;8367419;28;20463;-51
2022/10/27 08:33:16;;;;;;;9.00;2.90;;;;;;;16.71;100.00;101226.13;8375176;28;20410;-53
2022/10/27 08:37:17;;;;;;;6.70;2.90;;;;;;;17.02;100.00;101235.47;8374487;28;20060;-53
2022/10/27 08:41:24;;;;;;;7.72;2.65;;;;;;;17.28;100.00;101230.78;8373889;28;20112;-51
2022/10/27 08:45:28;;;;;;;6.38;2.95;;;;;;;18.04;100.00;101221.34;8374354;28;20033;-53
2022/10/27 08:49:50;;;;;;;4.43;1.70;;;;;;;19.81;90.13;101228.94;8362732;28;20117;-51
2022/10/27 08:53:54;;;;;;;7.20;2.40;;;;;;;21.09;82.42;101227.72;8358401;28;20404;-51
2022/10/27 08:58:05;;;;;;;3.78;1.60;;;;;;;21.38;79.61;101220.25;8363136;28;20146;-50
2022/10/27 09:02:46;;;;;;;4.97;1.58;;;;;;;21.37;79.70;101217.69;8375193;28;20036;-50
2022/10/27 09:07:16;;;;;;;3.05;1.02;;;;;;;21.42;78.54;101223.47;8374953;28;20517;-53
2022/10/27 09:11:57;;;;;;;3.30;1.30;;;;;;;21.55;78.60;101218.13;8374442;28;20056;-50
2022/10/27 09:16:03;;;;;;;3.60;1.20;;;;;;;22.38;75.39;101210.06;8374803;28;20040;-51
2022/10/27 09:20:14;;;;;;;12.23;1.90;;;;;;;22.46;75.39;101202.50;8346739;28;20036;-49
2022/10/27 09:24:20;;;;;;;8.15;1.60;;;;;;;22.54;73.71;101191.34;8358669;28;20037;-50
2022/10/27 09:28:29;;;;;;;7.40;1.70;;;;;;;22.46;75.04;101191.47;8363944;28;20075;-51
2022/10/27 09:32:34;;;;;;;6.18;1.98;;;;;;;22.91;73.44;101179.91;8374730;28;20044;-50
2022/10/27 09:36:35;;;;;;;7.18;1.55;;;;;;;23.19;72.50;101191.72;8374642;28;20037;-51
2022/10/27 09:40:36;;;;;;;6.82;1.48;;;;;;;23.86;69.38;101179.81;8374155;28;20554;-51
2022/10/27 09:44:37;;;;;;;4.97;1.27;;;;;;;24.42;68.22;101175.59;8370225;28;20037;-52
2022/10/27 09:48:38;;;;;;;9.90;1.70;;;;;;;23.74;69.94;101171.31;8373539;28;20037;-50
2022/10/27 09:52:42;;;;;;;5.20;1.40;;;;;;;23.52;70.52;101168.91;8373748;28;20040;-50
2022/10/27 09:56:43;;;;;;;4.43;1.15;;;;;;;23.94;69.53;101163.06;8372260;28;20129;-49
2022/10/27 10:00:43;;;;;;;8.10;1.50;;;;;;;24.66;68.10;101161.97;8371416;28;20049;-50
2022/10/27 10:04:46;;;;;;;2.67;1.00;;;;;;;24.73;67.11;101150.91;8373881;28;20040;-53
2022/10/27 10:08:46;;;;;;;6.50;1.67;;;;;;;24.92;67.38;101161.88;8371275;28;20043;-50
2022/10/27 10:13:11;;;;;;;8.10;1.40;;;;;;;24.87;66.89;101158.09;8381490;28;20049;-51
2022/10/27 10:21:50;;;;;;;2.85;1.08;;;;;;;25.87;64.65;101144.34;8418943;27;20460;-49
2022/10/27 10:25:53;;;;;;;5.85;0.82;;;;;;;25.97;63.62;101140.00;8382985;28;20036;-51
2022/10/27 10:29:56;;;;;;;6.83;0.83;;;;;;;25.70;63.15;101144.06;8404554;28;20082;-49
2022/10/27 10:34:03;;;;;;;4.05;0.77;;;;;;;25.50;64.38;101143.34;8402038;28;20553;-49
2022/10/27 10:42:36;;;;;;;4.95;0.85;;;;;;;25.91;63.24;101135.38;8385335;28;20350;-49
2022/10/27 10:46:48;;;;;;;3.13;1.20;;;;;;;25.85;64.48;101122.41;8388027;28;20559;-51
2022/10/27 10:50:49;;;;;;;4.18;1.15;;;;;;;25.74;65.64;101125.91;8396191;28;20478;-51
2022/10/27 10:54:50;;;;;;;5.97;0.90;;;;;;;25.90;64.48;101121.75;8359655;28;20041;-49
2022/10/27 10:59:01;;;;;;;4.82;1.10;;;;;;;25.80;65.04;101104.78;8363924;28;20041;-52
2022/10/27 11:03:10;;;;;;;3.88;1.23;;;;;;;25.52;67.17;101107.94;8360673;28;20075;-49
2022/10/27 11:07:31;;;;;;;3.92;0.80;;;;;;;26.26;65.36;101111.63;8398443;28;20085;-49
2022/10/27 11:11:38;;;;;;;7.45;1.50;;;;;;;26.97;63.01;101108.28;8363393;28;20418;-49
2022/10/27 11:15:53;;;;;;;4.05;1.42;;;;;;;27.25;62.94;101100.25;8339723;28;20025;-49
2022/10/27 11:19:55;;;;;;;3.50;1.13;;;;;;;27.18;61.55;101093.91;8360688;28;20242;-50
2022/10/27 11:24:01;;;;;;;4.97;0.90;;;;;;;25.73;64.71;101081.78;8362742;28;20037;-49
2022/10/27 11:32:44;;;;;;;3.30;1.00;;;;;;;26.86;63.37;101078.56;8415397;27;20404;-51
2022/10/27 11:36:52;;;;;;;5.63;1.30;;;;;;;26.54;65.52;101070.38;8413155;28;20639;-49
2022/10/27 11:41:18;;;;;;;2.67;1.00;;;;;;;26.08;65.12;101053.38;8411917;28;20047;-49
2022/10/27 11:45:25;;;;;;;6.40;1.15;;;;;;;26.33;64.92;101051.41;8409562;28;20101;-50
2022/10/27 11:53:46;;;;;;;1.77;0.90;;;;;;;26.94;62.72;101036.59;8337985;27;20389;-50
2022/10/27 11:58:05;;;;;;;3.15;0.90;;;;;;;26.57;60.85;101038.53;8334128;28;20503;-51
2022/10/27 12:02:46;;;;;;;1.80;0.90;;;;;;;26.57;61.70;101046.88;8359754;28;20091;-50
2022/10/27 12:07:12;;;;;;;13.80;1.40;;;;;;;26.84;62.31;101046.31;8337563;28;20033;-50
2022/10/27 12:11:53;;;;;;;5.97;1.20;;;;;;;26.40;62.88;101035.53;8350737;28;20045;-49
2022/10/27 12:15:59;;;;;;;6.97;1.42;;;;;;;25.88;64.83;101038.81;8360339;28;20045;-49
2022/10/27 12:20:03;;;;;;;4.60;1.10;;;;;;;25.41;67.08;101033.91;8356337;28;20042;-53
2022/10/27 12:24:13;;;;;;;4.13;1.40;;;;;;;25.27;68.51;101031.41;8346888;28;20037;-50
2022/10/27 12:28:15;;;;;;;6.43;1.80;;;;;;;24.96;70.15;101029.50;8365276;28;20044;-50
2022/10/27 12:32:24;;;;;;;4.60;1.60;;;;;;;24.59;72.33;101010.94;8377707;28;20306;-49
2022/10/27 12:36:57;;;;;;;8.95;1.63;;;;;;;24.04;74.41;101023.44;8377976;28;20044;-52
2022/10/27 12:41:05;;;;;;;5.25;1.73;;;;;;;23.69;74.70;101012.84;8362049;28;20033;-49
2022/10/27 12:45:37;;;;;;;7.45;2.08;;;;;;;23.63;75.71;101005.41;8348137;28;20033;-50
2022/10/27 12:49:48;;;;;;;6.63;1.67;;;;;;;23.61;74.55;101010.28;8361123;28;20422;-50
2022/10/27 12:53:57;;;;;;;6.07;2.03;;;;;;;23.87;74.38;101005.56;8374538;28;20041;-50
2022/10/27 12:58:04;;;;;;;9.45;2.15;;;;;;;23.80;74.92;101001.13;8357521;28;20222;-49
2022/10/27 13:02:10;;;;;;;6.53;1.98;;;;;;;23.57;75.00;100997.97;8354748;28;20521;-50
2022/10/27 13:06:26;;;;;;;10.85;2.13;;;;;;;23.50;75.31;100988.81;8345364;28;20536;-49
2022/10/27 13:11:06;;;;;;;7.35;1.90;;;;;;;23.43;76.08;100985.22;8351100;28;20052;-49
2022/10/27 13:15:30;;;;;;;11.80;2.45;;;;;;;23.40;77.05;100974.59;8290207;28;20042;-50
2022/10/27 13:19:55;;;;;;;5.85;1.75;;;;;;;23.44;77.50;100975.88;8290190;28;20116;-49
2022/10/27 13:24:20;;;;;;;6.53;2.38;;;;;;;23.44;77.28;100973.13;8309342;28;20556;-49
2022/10/27 13:28:35;;;;;;;9.25;1.92;;;;;;;23.36;77.55;100962.31;8303770;28;20096;-50
2022/10/27 13:32:40;;;;;;;5.53;2.13;;;;;;;23.21;78.62;100966.06;8353082;28;20090;-49
2022/10/27 13:36:41;;;;;;;7.38;2.60;;;;;;;23.05;79.05;100955.47;8349349;28;20099;-50
2022/10/27 13:40:42;;;;;;;10.45;2.45;;;;;;;22.95;80.20;100962.44;8355295;28;20061;-49
2022/10/27 13:44:42;;;;;;;13.40;2.65;;;;;;;22.98;79.50;100953.75;8355843;28;20109;-50
2022/10/27 13:48:46;;;;;;;10.88;2.70;;;;;;;22.97;80.06;100944.63;8353726;28;20044;-49
2022/10/27 14:05:56;;;;;;;11.25;2.50;;;;;;;22.60;82.58;100950.69;8394274;27;20862;-49
2022/10/27 14:09:58;;;;;;;7.60;2.03;;;;;;;22.47;82.71;100956.16;8397278;27;20068;-49
2022/10/27 14:14:05;;;;;;;9.18;3.00;;;;;;;22.35;83.81;100951.47;8387327;28;20127;-49
2022/10/27 14:18:27;;;;;;;12.23;2.80;;;;;;;22.28;84.32;100951.41;8360757;28;20447;-52
2022/10/27 14:22:32;;;;;;;6.93;2.65;;;;;;;22.20;84.90;100948.81;8354113;28;20048;-50
2022/10/27 14:26:36;;;;;;;12.23;2.47;;;;;;;22.16;85.90;100960.47;8347272;28;20102;-50
2022/10/27 14:30:36;;;;;;;9.15;2.75;;;;;;;22.07;85.58;100959.78;8364491;28;20116;-49
2022/10/27 14:34:37;;;;;;;6.65;2.30;;;;;;;22.05;85.93;100961.88;8373364;28;20410;-51
2022/10/27 14:38:42;;;;;;;6.32;2.85;;;;;;;21.91;86.65;100953.75;8347845;28;20057;-51
2022/10/27 14:42:44;;;;;;;10.40;3.10;;;;;;;21.81;87.07;100956.91;8330980;28;20051;-49
2022/10/27 14:46:48;;;;;;;10.00;2.97;;;;;;;21.75;88.14;100960.47;8351081;28;20501;-49
2022/10/27 14:50:49;;;;;;;9.53;3.33;;;;;;;21.69;88.18;100955.72;8351954;28;20040;-49
2022/10/27 14:54:54;;;;;;;11.43;3.20;;;;;;;21.62;89.38;100960.31;8346144;28;20514;-49
2022/10/27 14:58:59;;;;;;;;;;;;;;;21.59;90.11;100963.47;8342253;28;20041;-51
2022/10/27 15:03:05;;;;;;;12.05;3.38;;;;;;;21.54;91.55;100957.75;8359338;28;19917;-50
2022/10/27 15:07:13;;;;;;;6.50;3.25;;;;;;;21.47;92.32;100956.81;8348320;28;20095;-50
2022/10/27 15:11:19;;;;;;;11.55;3.85;;;;;;;21.48;91.11;100955.78;8352744;28;20037;-49
2022/10/27 15:15:21;;;;;;;9.70;3.10;;;;;;;21.54;90.70;100956.88;8355339;28;20040;-51
2022/10/27 15:19:22;;;;;;;13.25;4.47;;;;;;;21.47;90.58;100962.31;8313476;28;20033;-49
2022/10/27 15:23:24;;;;;;;8.93;3.33;;;;;;;21.43;90.85;100958.28;8299926;28;20069;-49
2022/10/27 15:27:32;;;;;;;13.20;3.28;;;;;;;21.42;90.67;100953.84;8308972;28;20042;-49
2022/10/27 15:32:12;;;;;;;10.07;3.90;;;;;;;21.32;91.64;100948.69;8321352;28;20041;-49
2022/10/27 15:44:41;;;;;;;12.50;4.72;;;;;;;21.01;94.20;100944.59;8422291;27;20819;-49
2022/10/27 15:48:43;;;;;;;8.43;3.70;;;;;;;20.98;94.09;100934.00;8387478;27;20043;-49
2022/10/27 15:52:43;;;;;;;13.60;4.43;;;;;;;20.98;93.80;100917.50;8404384;27;20032;-49
2022/10/27 15:56:50;;;;;;;13.75;4.22;;;;;;;20.86;93.93;100922.63;8401486;27;20098;-49
2022/10/27 16:01:10;;;;;;;10.77;4.22;;;;;;;20.88;94.62;100922.44;8404925;28;20036;-49
2022/10/27 16:09:45;;;;;;;12.18;4.45;;;;;;;21.00;93.61;100920.91;8355785;27;20404;-49
2022/10/27 16:13:51;;;;;;;11.55;4.10;;;;;;;21.02;92.71;100935.31;8397773;28;20040;-49
2022/10/27 16:17:58;;;;;;;11.32;3.90;;;;;;;21.17;91.03;100938.84;8413652;28;20036;-49
2022/10/27 16:22:01;;;;;;;13.20;4.10;;;;;;;21.24;90.85;100939.72;8413981;28;20044;-51
2022/10/27 16:26:01;;;;;;;15.57;4.45;;;;;;;21.19;90.56;100942.22;8413344;28;20048;-51
2022/10/27 16:30:04;;;;;;;17.95;4.63;;;;;;;21.11;91.60;100950.63;8412357;28;20768;-49
2022/10/27 16:34:04;;;;;;;11.73;4.22;;;;;;;20.96;92.83;100964.44;8414244;28;20556;-49
2022/10/27 16:38:05;;;;;;;7.57;3.90;;;;;;;20.90;92.39;100978.94;8414448;28;20386;-50
2022/10/27 16:42:09;;;;;;;13.90;4.38;;;;;;;20.96;90.41;100980.09;8413552;28;20044;-49
2022/10/27 16:46:11;;;;;;;;;;;;;;;20.96;90.56;100980.09;8422500;28;20496;-49
2022/10/27 16:50:12;;;;;;;16.00;5.82;;;;;;;20.92;89.54;100974.09;8440002;28;19920;-50
2022/10/27 16:54:12;;;;;;;14.27;4.80;;;;;;;21.01;88.47;100977.56;8393403;28;20040;-52
2022/10/27 16:58:19;;;;;;;14.40;5.15;;;;;;;21.00;88.46;100987.75;8406825;28;20059;-49
2022/10/27 17:02:19;;;;;;;9.07;3.80;;;;;;;21.04;88.13;100982.69;8413370;28;20089;-49
2022/10/27 17:06:20;;;;;;;11.90;4.13;;;;;;;21.01;88.46;100977.56;8409905;28;20040;-49
2022/10/27 17:10:21;;;;;;;9.77;4.70;;;;;;;20.98;88.40;100983.50;8428825;28;20048;-49
2022/10/27 17:14:22;;;;;;;13.90;4.55;;;;;;;21.00;87.89;100981.38;8407510;28;20036;-52
2022/10/27 17:18:23;;;;;;;6.97;3.60;;;;;;;21.05;87.85;100974.25;8430322;28;20508;-51
2022/10/27 17:22:23;;;;;;;10.02;4.75;;;;;;;20.98;88.06;100975.25;8376974;28;20132;-49
2022/10/27 17:26:26;;;;;;;9.98;4.28;;;;;;;21.02;87.49;100974.63;8356619;28;20727;-50
2022/10/27 17:30:26;;;;;;;11.68;4.55;;;;;;;20.98;87.53;100969.75;8368998;28;20532;-50
2022/10/27 17:34:28;;;;;;;11.57;4.55;;;;;;;20.98;87.35;100976.09;8356312;28;20037;-49
2022/10/27 17:38:29;;;;;;;16.92;5.10;;;;;;;21.10;86.07;100977.25;8356145;28;20513;-51
2022/10/27 17:42:31;;;;;;;14.73;4.75;;;;;;;21.23;85.15;100982.03;8372002;28;20461;-49
2022/10/27 17:46:32;;;;;;;13.75;4.85;;;;;;;21.06;86.07;100986.09;8375802;28;20044;-53
2022/10/27 17:50:33;;;;;;;15.77;5.43;;;;;;;20.83;87.20;100988.19;8383673;28;20056;-50
2022/10/27 17:54:34;;;;;;;11.52;4.68;;;;;;;20.67;88.47;100980.16;8387897;28;20119;-49
2022/10/27 17:58:37;;;;;;;14.93;4.95;;;;;;;20.52;89.71;100988.44;8387795;28;20090;-50
2022/10/27 18:02:38;;;;;;;12.32;5.28;;;;;;;20.49;89.30;100983.34;8420660;28;20040;-52
2022/10/27 18:06:40;;;;;;;20.02;5.00;;;;;;;20.43;89.67;100977.78;8387638;28;20036;-50
2022/10/27 18:10:41;;;;;;;13.25;4.90;;;;;;;20.36;90.31;100976.81;8388313;28;20047;-49
2022/10/27 18:14:42;;;;;;;13.32;4.97;;;;;;;20.23;91.21;100971.19;8388663;28;20041;-51
2022/10/27 18:18:42;;;;;;;14.38;5.43;;;;;;;20.40;90.24;100972.66;8416334;28;20043;-50
2022/10/27 18:22:43;;;;;;;13.02;4.43;;;;;;;20.51;89.51;100969.41;8421455;28;20054;-53
2022/10/27 18:26:46;;;;;;;18.13;5.43;;;;;;;20.44;89.74;100979.47;8421059;28;20707;-49
2022/10/27 18:30:47;;;;;;;11.23;4.75;;;;;;;20.37;90.29;100973.06;8386593;28;20045;-50
2022/10/27 18:34:48;;;;;;;12.10;5.05;;;;;;;20.33;90.10;100972.56;8386763;28;20063;-50
2022/10/27 18:38:54;;;;;;;12.60;5.05;;;;;;;20.27;90.75;100975.22;8387273;28;20036;-50
2022/10/27 18:42:54;;;;;;;18.90;6.07;;;;;;;20.22;91.10;100969.47;8403005;28;20036;-51
2022/10/27 18:46:55;;;;;;;13.82;4.80;;;;;;;20.15;91.87;100974.00;8390993;28;20036;-51
2022/10/27 18:50:58;;;;;;;14.88;5.40;;;;;;;20.21;91.11;100976.00;8384819;28;20028;-53
2022/10/27 18:54:59;;;;;;;15.18;4.95;;;;;;;20.09;92.06;100980.22;8386163;28;20051;-53
2022/10/27 18:59:03;;;;;;;20.65;5.80;;;;;;;20.02;92.76;100979.31;8370290;28;20041;-50
2022/10/27 19:03:03;;;;;;;16.00;5.13;;;;;;;20.03;92.63;100986.53;8357798;28;20064;-51
2022/10/27 19:07:04;;;;;;;11.43;4.78;;;;;;;20.00;93.10;100976.75;8363015;28;20487;-49
2022/10/27 19:11:09;;;;;;;12.43;5.07;;;;;;;20.06;93.01;100970.50;8362772;28;20087;-50
2022/10/27 19:15:10;;;;;;;17.40;5.68;;;;;;;20.09;92.55;100974.75;8372619;28;20037;-49
2022/10/27 19:19:10;;;;;;;13.93;5.50;;;;;;;20.02;93.26;100979.31;8394993;28;20074;-50
2022/10/27 19:23:11;;;;;;;13.18;5.65;;;;;;;19.93;93.86;100969.47;8363169;28;20053;-53
2022/10/27 19:27:12;;;;;;;14.38;6.15;;;;;;;19.79;94.85;100973.06;8373612;28;20433;-50
2022/10/27 19:31:15;;;;;;;12.48;5.70;;;;;;;19.69;95.74;100967.00;8360801;28;20045;-50
2022/10/27 19:35:17;;;;;;;14.48;5.95;;;;;;;19.69;96.27;100972.47;8355633;28;20036;-51
2022/10/27 19:39:18;;;;;;;14.77;6.50;;;;;;;19.62;97.12;100982.50;8368790;28;20422;-49
2022/10/27 19:43:18;;;;;;;12.77;6.35;;;;;;;19.63;97.06;100967.75;8374310;28;20032;-50
2022/10/27 19:47:19;;;;;;;10.95;5.80;;;;;;;19.77;96.77;100966.91;8368459;28;20446;-50